createdAt,value
2023-05-11T00:02:14.186Z,65.23
2023-05-11T00:04:41.259Z,62.23
2023-05-11T00:07:08.323Z,58.73
2023-05-11T00:09:35.897Z,57.60
2023-05-11T00:12:02.896Z,57.93
2023-05-11T00:14:29.706Z,57.10
2023-05-11T00:16:56.518Z,57.40
2023-05-11T00:19:23.285Z,58.33
2023-05-11T00:21:50.093Z,60.70
2023-05-11T00:24:16.838Z,59.30
2023-05-11T00:26:43.704Z,60.87
2023-05-11T00:29:10.588Z,58.37
2023-05-11T00:31:37.456Z,58.57
2023-05-11T00:34:04.291Z,56.67
2023-05-11T00:36:31.089Z,58.97
2023-05-11T00:38:57.841Z,57.57
2023-05-11T00:41:24.902Z,55.97
2023-05-11T00:43:51.890Z,56.73
2023-05-11T00:46:18.992Z,57.80
2023-05-11T00:48:46.189Z,60.13
2023-05-11T00:51:13.666Z,57.67
2023-05-11T00:53:40.838Z,58.93
2023-05-11T00:56:08.573Z,63.80
2023-05-11T00:58:36.121Z,62.50
2023-05-11T01:01:03.087Z,58.07
2023-05-11T01:03:30.128Z,64.50
2023-05-11T01:06:08.976Z,63.73
2023-05-11T01:09:03.793Z,61.57
2023-05-11T01:11:53.689Z,55.60
2023-05-11T01:14:32.207Z,64.13
2023-05-11T01:17:06.706Z,71.23
2023-05-11T01:19:46.833Z,68.13
2023-05-11T01:22:44.579Z,65.73
2023-05-11T01:25:39.184Z,62.63
2023-05-11T01:28:29.446Z,60.40
2023-05-11T01:31:06.662Z,61.40
2023-05-11T01:33:36.761Z,67.30
2023-05-11T01:36:10.182Z,70.50
2023-05-11T01:38:40.675Z,68.47
2023-05-11T01:41:16.225Z,69.30
2023-05-11T01:43:46.445Z,70.50
2023-05-11T01:46:15.747Z,67.30
2023-05-11T01:48:46.804Z,64.53
2023-05-11T01:51:15.918Z,65.60
2023-05-11T01:53:43.472Z,67.73
2023-05-11T01:56:11.792Z,64.73
2023-05-11T01:58:40.528Z,59.97
2023-05-11T02:01:08.567Z,65.87
2023-05-11T02:03:36.897Z,65.37
2023-05-11T02:06:06.569Z,65.53
2023-05-11T02:08:36.498Z,68.03
2023-05-11T02:11:04.336Z,74.00
2023-05-11T02:13:34.621Z,66.73
2023-05-11T02:16:02.725Z,65.33
2023-05-11T02:18:31.227Z,61.80
2023-05-11T02:21:00.230Z,60.30
2023-05-11T02:23:29.669Z,58.97
2023-05-11T02:25:57.995Z,57.97
2023-05-11T02:28:25.225Z,60.53
2023-05-11T02:30:56.949Z,61.67
2023-05-11T02:33:35.138Z,62.50
2023-05-11T02:36:03.265Z,63.50
2023-05-11T02:38:34.926Z,61.57
2023-05-11T02:41:12.521Z,61.10
2023-05-11T02:43:47.380Z,60.53
2023-05-11T02:46:18.876Z,62.60
2023-05-11T02:48:50.900Z,64.07
2023-05-11T02:51:22.230Z,65.03
2023-05-11T02:53:53.350Z,69.37
2023-05-11T02:56:20.491Z,62.70
2023-05-11T02:58:47.333Z,61.23
2023-05-11T03:01:21.058Z,63.33
2023-05-11T03:03:48.158Z,65.20
2023-05-11T03:06:15.312Z,58.63
2023-05-11T03:08:42.598Z,60.63
2023-05-11T03:11:12.528Z,62.37
2023-05-11T03:13:39.548Z,63.07
2023-05-11T03:16:08.833Z,62.07
2023-05-11T03:18:37.149Z,62.00
2023-05-11T03:21:05.135Z,62.30
2023-05-11T03:23:35.050Z,59.33
2023-05-11T03:26:02.630Z,63.57
2023-05-11T03:28:30.506Z,64.70
2023-05-11T03:31:01.630Z,67.43
2023-05-11T03:33:31.189Z,70.27
2023-05-11T03:35:59.895Z,69.60
2023-05-11T03:38:29.280Z,79.30
2023-05-11T03:40:58.373Z,79.13
2023-05-11T03:43:30.032Z,66.30
2023-05-11T03:45:58.024Z,61.77
2023-05-11T03:48:26.677Z,61.47
2023-05-11T03:50:54.440Z,58.97
2023-05-11T03:53:21.393Z,60.73
2023-05-11T03:55:50.015Z,61.83
2023-05-11T03:58:17.053Z,64.70
2023-05-11T04:00:43.992Z,71.77
2023-05-11T04:03:11.384Z,75.30
2023-05-11T04:05:39.050Z,71.30
2023-05-11T04:08:09.708Z,69.60
2023-05-11T04:10:38.201Z,68.47
2023-05-11T04:13:05.392Z,65.50
2023-05-11T04:15:32.311Z,68.00
2023-05-11T04:17:59.129Z,64.40
2023-05-11T04:20:26.127Z,64.17
2023-05-11T04:22:52.907Z,63.87
2023-05-11T04:25:19.725Z,65.00
2023-05-11T04:27:46.703Z,63.87
2023-05-11T04:30:13.612Z,62.20
2023-05-11T04:32:40.507Z,65.17
2023-05-11T04:35:09.410Z,64.80
2023-05-11T04:37:38.237Z,64.57
2023-05-11T04:40:07.692Z,62.93
2023-05-11T04:42:39.761Z,59.07
2023-05-11T04:45:10.610Z,62.80
2023-05-11T04:47:37.827Z,60.80
2023-05-11T04:50:06.344Z,59.00
2023-05-11T04:52:35.292Z,57.00
2023-05-11T04:55:02.783Z,61.17
2023-05-11T04:57:29.856Z,65.50
2023-05-11T04:59:57.111Z,65.97
2023-05-11T05:02:24.020Z,67.03
2023-05-11T05:04:50.920Z,66.10
2023-05-11T05:07:17.767Z,64.23
2023-05-11T05:09:45.529Z,62.87
2023-05-11T05:12:14.982Z,63.37
2023-05-11T05:14:43.066Z,64.40
2023-05-11T05:17:09.971Z,66.03
2023-05-11T05:19:37.349Z,63.13
2023-05-11T05:22:05.389Z,64.63
2023-05-11T05:24:32.721Z,65.57
2023-05-11T05:26:59.659Z,65.07
2023-05-11T05:29:27.051Z,63.33
2023-05-11T05:31:54.286Z,62.80
2023-05-11T05:34:21.395Z,64.77
2023-05-11T05:36:48.912Z,61.87
2023-05-11T05:39:15.811Z,63.33
2023-05-11T05:41:43.374Z,62.87
2023-05-11T05:44:11.047Z,61.00
2023-05-11T05:46:38.903Z,64.70
2023-05-11T05:49:06.200Z,65.43
2023-05-11T05:51:33.988Z,65.73
2023-05-11T05:54:00.783Z,64.83
2023-05-11T05:56:27.646Z,64.20
2023-05-11T05:58:54.575Z,65.60
2023-05-11T06:01:22.190Z,61.13
2023-05-11T06:03:52.124Z,65.67
2023-05-11T06:06:19.307Z,65.87
2023-05-11T06:08:46.115Z,65.17
2023-05-11T06:11:12.979Z,65.40
2023-05-11T06:13:39.790Z,66.83
2023-05-11T06:16:06.701Z,63.73
2023-05-11T06:18:34.834Z,64.13
2023-05-11T06:21:03.665Z,65.23
2023-05-11T06:23:31.884Z,64.03
2023-05-11T06:25:58.942Z,65.33
2023-05-11T06:28:27.589Z,67.50
2023-05-11T06:30:59.253Z,63.10
2023-05-11T06:33:28.317Z,62.70
2023-05-11T06:35:55.949Z,65.73
2023-05-11T06:38:22.856Z,59.03
2023-05-11T06:40:53.652Z,58.17
2023-05-11T06:43:20.485Z,62.57
2023-05-11T06:45:49.133Z,65.13
2023-05-11T06:48:16.307Z,64.93
2023-05-11T06:50:43.364Z,53.83
2023-05-11T06:53:13.274Z,54.57
2023-05-11T06:55:40.129Z,49.30
2023-05-11T06:58:07.087Z,50.73
2023-05-11T07:00:34.253Z,49.77
2023-05-11T07:03:01.092Z,52.27
2023-05-11T07:05:28.051Z,46.83
2023-05-11T07:07:54.836Z,43.07
2023-05-11T07:10:21.741Z,43.00
2023-05-11T07:12:49.204Z,44.47
2023-05-11T07:15:16.090Z,48.03
2023-05-11T07:17:43.037Z,47.80
2023-05-11T07:20:10.476Z,43.23
2023-05-11T07:22:37.514Z,43.90
2023-05-11T07:25:04.664Z,35.93
2023-05-11T07:27:31.633Z,31.63
2023-05-11T07:29:58.391Z,29.83
2023-05-11T07:32:25.204Z,31.33
2023-05-11T07:34:52.111Z,29.87
2023-05-11T07:37:18.979Z,32.20
2023-05-11T07:39:45.784Z,35.13
2023-05-11T07:42:12.676Z,32.87
2023-05-11T07:44:39.468Z,42.53
2023-05-11T07:47:06.300Z,39.00
2023-05-11T07:49:42.900Z,43.97
2023-05-11T07:52:11.555Z,43.23
2023-05-11T07:54:40.203Z,39.23
2023-05-11T07:57:07.900Z,47.33
2023-05-11T07:59:34.700Z,44.97
2023-05-11T08:02:01.649Z,28.37
2023-05-11T08:04:28.586Z,29.73
2023-05-11T08:06:55.362Z,28.40
2023-05-11T08:09:23.007Z,39.57
2023-05-11T08:11:49.998Z,34.33
2023-05-11T08:14:17.207Z,42.67
2023-05-11T08:16:44.393Z,56.80
2023-05-11T08:19:13.000Z,41.93
2023-05-11T08:21:40.311Z,55.53
2023-05-11T08:24:07.448Z,43.83
2023-05-11T08:26:34.273Z,36.00
2023-05-11T08:29:01.122Z,51.00
2023-05-11T08:31:28.089Z,49.27
2023-05-11T08:33:55.100Z,48.23
2023-05-11T08:36:22.064Z,56.30
2023-05-11T08:38:48.909Z,56.37
2023-05-11T08:41:15.727Z,58.43
2023-05-11T08:43:45.684Z,45.47
2023-05-11T08:46:16.938Z,61.57
2023-05-11T08:48:44.745Z,60.00
2023-05-11T08:51:11.743Z,65.87
2023-05-11T08:53:38.823Z,53.73
2023-05-11T08:56:08.654Z,46.73
2023-05-11T08:58:37.511Z,50.43
2023-05-11T09:01:08.711Z,44.00
2023-05-11T09:03:37.109Z,37.93
2023-05-11T09:06:07.351Z,42.13
2023-05-11T09:08:38.527Z,49.90
2023-05-11T09:11:06.205Z,44.40
2023-05-11T09:13:33.365Z,66.63
2023-05-11T09:16:00.303Z,66.40
2023-05-11T09:18:27.394Z,52.23
2023-05-11T09:20:54.401Z,54.87
2023-05-11T09:23:27.785Z,71.67
2023-05-11T09:25:54.690Z,50.90
2023-05-11T09:28:25.734Z,57.00
2023-05-11T09:30:53.387Z,61.77
2023-05-11T09:33:25.133Z,74.93
2023-05-11T09:35:53.210Z,70.70
2023-05-11T09:38:21.141Z,56.40
2023-05-11T09:40:57.121Z,65.40
2023-05-11T09:43:30.137Z,54.77
2023-05-11T09:46:01.780Z,48.43
2023-05-11T09:48:31.719Z,50.22
2023-05-11T09:51:01.657Z,52.90
2023-05-11T09:53:41.324Z,57.83
2023-05-11T09:56:09.995Z,78.33
2023-05-11T09:58:51.507Z,61.27
2023-05-11T10:01:28.954Z,50.93
2023-05-11T10:04:05.763Z,64.30
2023-05-11T10:06:55.737Z,55.83
2023-05-11T10:09:26.574Z,45.43
2023-05-11T10:11:55.178Z,57.87
2023-05-11T10:14:22.737Z,57.87
2023-05-11T10:16:50.656Z,50.47
2023-05-11T10:19:17.762Z,52.00
2023-05-11T10:21:45.745Z,45.83
2023-05-11T10:24:13.869Z,45.90
2023-05-11T10:26:41.287Z,38.17
2023-05-11T10:29:09.358Z,38.07
2023-05-11T10:31:37.713Z,34.00
2023-05-11T10:34:05.584Z,36.17
2023-05-11T10:36:33.259Z,38.73
2023-05-11T10:39:00.102Z,38.40
2023-05-11T10:42:01.475Z,47.27
2023-05-11T10:45:01.607Z,44.47
2023-05-11T10:47:55.270Z,36.00
2023-05-11T10:51:00.032Z,39.77
2023-05-11T10:53:53.769Z,43.00
2023-05-11T10:56:47.980Z,56.03
2023-05-11T10:59:33.589Z,53.80
2023-05-11T11:02:01.823Z,59.23
2023-05-11T11:04:49.812Z,57.70
2023-05-11T11:07:18.492Z,56.90
2023-05-11T11:10:07.207Z,51.33
2023-05-11T11:12:37.260Z,50.77
2023-05-11T11:15:06.540Z,45.57
2023-05-11T11:17:35.355Z,43.60
2023-05-11T11:20:10.149Z,46.33
2023-05-11T11:22:38.546Z,44.00
2023-05-11T11:25:09.791Z,46.17
2023-05-11T11:27:45.628Z,43.70
2023-05-11T11:30:22.866Z,43.23
2023-05-11T11:32:52.527Z,39.83
2023-05-11T11:35:41.849Z,42.97
2023-05-11T11:38:19.741Z,44.93
2023-05-11T11:40:52.477Z,46.63
2023-05-11T11:43:25.389Z,43.80
2023-05-11T11:45:53.627Z,41.80
2023-05-11T11:48:35.845Z,43.13
2023-05-11T11:51:06.794Z,47.27
2023-05-11T11:53:46.046Z,46.30
2023-05-11T11:56:15.845Z,46.90
2023-05-11T11:58:43.249Z,45.03
2023-05-11T12:01:14.903Z,46.37
2023-05-11T12:03:44.275Z,45.73
2023-05-11T12:06:13.144Z,43.50
2023-05-11T12:08:41.257Z,43.37
2023-05-11T12:11:08.387Z,43.53
2023-05-11T12:13:35.854Z,44.20
2023-05-11T12:16:17.434Z,47.77
2023-05-11T12:19:00.751Z,48.00
2023-05-11T12:21:33.815Z,49.10
2023-05-11T12:24:04.764Z,47.30
2023-05-11T12:26:33.091Z,41.30
2023-05-11T12:29:14.467Z,39.97
2023-05-11T12:31:43.078Z,40.93
2023-05-11T12:34:16.365Z,41.50
2023-05-11T12:36:45.248Z,41.87
2023-05-11T12:39:20.067Z,42.23
2023-05-11T12:41:51.494Z,43.00
2023-05-11T12:44:20.072Z,43.63
2023-05-11T12:46:48.837Z,45.10
2023-05-11T12:49:24.935Z,44.30
2023-05-11T12:52:09.282Z,44.83
2023-05-11T12:54:39.132Z,44.80
2023-05-11T12:57:26.096Z,44.37
2023-05-11T13:00:13.187Z,44.47
2023-05-11T13:02:54.846Z,45.20
2023-05-11T13:05:26.969Z,43.73
2023-05-11T13:08:06.881Z,46.50
2023-05-11T13:10:33.703Z,46.43
2023-05-11T13:13:00.540Z,43.37
2023-05-11T13:15:28.786Z,42.60
2023-05-11T13:18:01.991Z,41.70
2023-05-11T13:20:33.398Z,42.50
2023-05-11T13:23:11.490Z,43.87
2023-05-11T13:25:48.791Z,45.27
2023-05-11T13:28:17.011Z,43.03
2023-05-11T13:30:44.796Z,44.13
2023-05-11T13:33:11.991Z,44.93
2023-05-11T13:35:42.710Z,44.73
2023-05-11T13:38:10.639Z,42.80
2023-05-11T13:40:38.255Z,42.17
2023-05-11T13:43:05.191Z,41.63
2023-05-11T13:45:31.996Z,41.27
2023-05-11T13:47:58.857Z,40.70
2023-05-11T13:50:26.667Z,42.63
2023-05-11T13:52:54.203Z,42.33
2023-05-11T13:55:21.607Z,43.30
2023-05-11T13:57:48.616Z,43.20
2023-05-11T14:00:16.181Z,42.17
2023-05-11T14:02:44.337Z,41.60
2023-05-11T14:05:11.301Z,45.00
2023-05-11T14:07:46.960Z,42.50
2023-05-11T14:10:16.671Z,41.90
2023-05-11T14:12:43.583Z,43.27
2023-05-11T14:15:11.181Z,42.10
2023-05-11T14:17:38.388Z,43.47
2023-05-11T14:20:06.409Z,46.60
2023-05-11T14:22:33.185Z,43.57
2023-05-11T14:25:01.443Z,44.60
2023-05-11T14:27:28.787Z,42.90
2023-05-11T14:29:55.581Z,39.77
2023-05-11T14:32:22.432Z,39.83
2023-05-11T14:34:49.264Z,39.23
2023-05-11T14:37:16.364Z,39.17
2023-05-11T14:39:43.188Z,38.63
2023-05-11T14:42:10.365Z,39.50
2023-05-11T14:44:37.142Z,40.13
2023-05-11T14:47:05.302Z,40.20
2023-05-11T14:49:32.323Z,41.33
2023-05-11T14:52:00.245Z,41.43
2023-05-11T14:54:27.052Z,40.63
2023-05-11T14:56:56.182Z,39.97
2023-05-11T14:59:26.876Z,44.57
2023-05-11T15:01:53.963Z,40.87
2023-05-11T15:04:21.083Z,41.00
2023-05-11T15:06:48.548Z,40.03
2023-05-11T15:09:15.595Z,38.20
2023-05-11T15:11:42.474Z,37.13
2023-05-11T15:14:09.375Z,38.97
2023-05-11T15:16:36.935Z,40.43
2023-05-11T15:19:05.132Z,39.07
2023-05-11T15:21:32.545Z,39.67
2023-05-11T15:23:59.357Z,40.23
2023-05-11T15:26:26.380Z,43.77
2023-05-11T15:28:53.153Z,41.13
2023-05-11T15:31:20.507Z,39.57
2023-05-11T15:33:47.360Z,39.33
2023-05-11T15:36:15.534Z,39.27
2023-05-11T15:38:43.527Z,39.93
2023-05-11T15:41:10.465Z,41.40
2023-05-11T15:43:37.343Z,45.20
2023-05-11T15:46:05.056Z,46.43
2023-05-11T15:48:32.287Z,45.70
2023-05-11T15:51:01.033Z,45.30
2023-05-11T15:53:27.984Z,46.00
2023-05-11T15:55:55.848Z,43.73
2023-05-11T15:58:23.308Z,43.63
2023-05-11T16:00:50.341Z,46.23
2023-05-11T16:03:17.614Z,46.50
2023-05-11T16:05:45.508Z,44.97
2023-05-11T16:08:13.064Z,43.57
2023-05-11T16:10:40.006Z,41.47
2023-05-11T16:13:07.243Z,44.63
2023-05-11T16:15:34.017Z,42.13
2023-05-11T16:18:03.969Z,42.17
2023-05-11T16:20:32.373Z,42.60
2023-05-11T16:22:59.392Z,43.73
2023-05-11T16:25:26.299Z,42.23
2023-05-11T16:27:53.126Z,43.57
2023-05-11T16:30:24.809Z,43.83
2023-05-11T16:32:52.818Z,41.73
2023-05-11T16:35:19.918Z,40.77
2023-05-11T16:37:47.900Z,41.57
2023-05-11T16:40:18.314Z,41.63
2023-05-11T16:42:46.856Z,41.13
2023-05-11T16:45:13.867Z,40.17
2023-05-11T16:47:41.167Z,40.13
2023-05-11T16:50:08.559Z,42.60
2023-05-11T16:52:35.443Z,41.87
2023-05-11T16:55:02.310Z,42.07
2023-05-11T16:57:29.200Z,39.53
2023-05-11T16:59:56.009Z,42.73
2023-05-11T17:02:23.052Z,42.13
2023-05-11T17:04:49.944Z,41.13
2023-05-11T17:07:16.707Z,43.47
2023-05-11T17:09:43.617Z,43.83
2023-05-11T17:12:10.740Z,41.37
2023-05-11T17:14:37.871Z,41.03
2023-05-11T17:17:06.835Z,40.93
2023-05-11T17:19:34.604Z,42.07
2023-05-11T17:22:01.524Z,40.97
2023-05-11T17:24:28.631Z,41.33
2023-05-11T17:26:55.715Z,41.63
2023-05-11T17:29:22.906Z,40.80
2023-05-11T17:31:51.688Z,41.37
2023-05-11T17:34:19.731Z,40.57
2023-05-11T17:36:47.891Z,40.77
2023-05-11T17:39:16.385Z,40.77
2023-05-11T17:41:43.595Z,41.63
2023-05-11T17:44:10.658Z,39.53
2023-05-11T17:46:37.501Z,39.73
2023-05-11T17:49:05.268Z,38.77
2023-05-11T17:51:32.888Z,38.90
2023-05-11T17:53:59.715Z,39.40
2023-05-11T17:56:26.770Z,40.23
2023-05-11T17:58:53.572Z,40.90
2023-05-11T18:01:22.555Z,41.23
2023-05-11T18:03:49.900Z,40.97
2023-05-11T18:06:17.127Z,40.17
2023-05-11T18:08:44.009Z,40.07
2023-05-11T18:11:12.650Z,40.10
2023-05-11T18:13:39.912Z,40.27
2023-05-11T18:16:07.212Z,42.80
2023-05-11T18:18:34.413Z,42.23
2023-05-11T18:21:05.658Z,42.13
2023-05-11T18:23:32.778Z,42.67
2023-05-11T18:25:59.849Z,40.13
2023-05-11T18:28:26.656Z,40.87
2023-05-11T18:30:54.224Z,39.63
2023-05-11T18:33:21.244Z,40.57
2023-05-11T18:35:48.203Z,39.27
2023-05-11T18:38:15.026Z,39.13
2023-05-11T18:40:41.855Z,39.83
2023-05-11T18:43:09.295Z,40.30
2023-05-11T18:45:36.122Z,40.47
2023-05-11T18:48:03.935Z,40.60
2023-05-11T18:50:30.890Z,41.30
2023-05-11T18:52:57.919Z,41.60
2023-05-11T18:55:25.841Z,42.30
2023-05-11T18:57:53.621Z,43.27
2023-05-11T19:00:21.013Z,41.53
2023-05-11T19:02:48.257Z,39.93
2023-05-11T19:05:15.491Z,41.37
2023-05-11T19:07:42.357Z,41.23
2023-05-11T19:10:09.405Z,41.47
2023-05-11T19:12:36.301Z,41.70
2023-05-11T19:15:04.352Z,42.60
2023-05-11T19:17:31.250Z,42.17
2023-05-11T19:19:58.059Z,43.07
2023-05-11T19:22:24.974Z,42.17
2023-05-11T19:24:51.733Z,42.57
2023-05-11T19:27:18.526Z,41.70
2023-05-11T19:29:45.814Z,41.57
2023-05-11T19:32:12.684Z,41.63
2023-05-11T19:34:39.834Z,42.77
2023-05-11T19:37:07.093Z,43.83
2023-05-11T19:39:34.006Z,44.30
2023-05-11T19:42:00.906Z,44.00
2023-05-11T19:44:32.678Z,45.53
2023-05-11T19:46:59.690Z,44.67
2023-05-11T19:49:28.030Z,43.60
2023-05-11T19:51:55.070Z,43.57
2023-05-11T19:54:22.240Z,44.43
2023-05-11T19:56:49.237Z,44.40
2023-05-11T19:59:16.102Z,45.07
2023-05-11T20:01:43.109Z,44.83
2023-05-11T20:04:12.638Z,45.73
2023-05-11T20:06:40.019Z,46.63
2023-05-11T20:09:07.266Z,45.07
2023-05-11T20:11:34.146Z,45.03
2023-05-11T20:14:01.241Z,45.80
2023-05-11T20:16:30.288Z,45.03
2023-05-11T20:18:59.262Z,42.17
2023-05-11T20:21:26.569Z,43.23
2023-05-11T20:23:53.617Z,42.53
2023-05-11T20:26:20.607Z,41.90
2023-05-11T20:28:47.384Z,42.07
2023-05-11T20:31:14.449Z,42.83
2023-05-11T20:36:14.127Z,42.33
2023-05-11T20:38:41.082Z,41.27
2023-05-11T20:41:07.894Z,41.37
2023-05-11T20:43:34.712Z,40.90
2023-05-11T20:46:03.497Z,42.20
2023-05-11T20:48:39.629Z,41.63
2023-05-11T20:51:07.669Z,40.97
2023-05-11T20:53:34.446Z,42.10
2023-05-11T20:56:03.009Z,41.67
2023-05-11T20:58:31.044Z,41.23
2023-05-11T21:00:58.170Z,41.50
2023-05-11T21:03:26.655Z,42.17
2023-05-11T21:05:53.660Z,41.57
2023-05-11T21:08:20.801Z,41.67
2023-05-11T21:10:47.657Z,42.67
2023-05-11T21:13:14.541Z,40.00
2023-05-11T21:15:41.378Z,40.43
2023-05-11T21:18:08.381Z,41.07
2023-05-11T21:20:35.675Z,42.67
2023-05-11T21:23:02.745Z,44.07
2023-05-11T21:25:29.791Z,43.43
2023-05-11T21:27:56.549Z,44.67
2023-05-11T21:30:23.372Z,44.97
2023-05-11T21:32:50.624Z,45.43
2023-05-11T21:35:18.062Z,44.60
2023-05-11T21:37:49.263Z,43.23
2023-05-11T21:40:18.062Z,44.40
2023-05-11T21:42:45.327Z,45.53
2023-05-11T21:45:12.492Z,46.80
2023-05-11T21:47:39.552Z,45.63
2023-05-11T21:50:08.549Z,44.73
2023-05-11T21:52:36.356Z,43.20
2023-05-11T21:55:03.602Z,44.20
2023-05-11T21:57:30.447Z,44.80
2023-05-11T21:59:57.225Z,47.23
2023-05-11T22:02:24.025Z,44.83
2023-05-11T22:04:50.860Z,47.43
2023-05-11T22:07:17.703Z,46.10
2023-05-11T22:09:44.544Z,45.97
2023-05-11T22:12:11.851Z,48.20
2023-05-11T22:14:38.669Z,45.80
2023-05-11T22:17:06.165Z,46.40
2023-05-11T22:19:33.448Z,46.00
2023-05-11T22:22:00.306Z,46.83
2023-05-11T22:24:27.243Z,46.50
2023-05-11T22:26:54.424Z,46.60
2023-05-11T22:29:21.902Z,48.07
2023-05-11T22:31:51.531Z,47.00
2023-05-11T22:34:21.283Z,47.17
2023-05-11T22:36:48.173Z,45.70
2023-05-11T22:39:15.400Z,47.23
2023-05-11T22:41:42.326Z,47.10
2023-05-11T22:44:09.572Z,49.10
2023-05-11T22:46:36.620Z,46.93
2023-05-11T22:49:03.372Z,47.70
2023-05-11T22:51:30.193Z,47.10
2023-05-11T22:53:56.954Z,48.67
2023-05-11T22:56:23.712Z,48.73
2023-05-11T22:58:51.996Z,49.87
2023-05-11T23:01:18.774Z,48.10
2023-05-11T23:03:45.564Z,49.27
2023-05-11T23:06:12.364Z,49.00
2023-05-11T23:08:39.381Z,47.57
2023-05-11T23:11:07.580Z,45.30
2023-05-11T23:13:34.935Z,46.53
2023-05-11T23:16:03.851Z,47.10
2023-05-11T23:18:31.861Z,47.23
2023-05-11T23:20:59.594Z,47.57
2023-05-11T23:23:26.788Z,47.57
2023-05-11T23:25:53.792Z,47.40
2023-05-11T23:28:20.870Z,46.37
2023-05-11T23:30:47.659Z,46.20
2023-05-11T23:33:15.006Z,45.73
2023-05-11T23:35:41.987Z,46.40
2023-05-11T23:38:08.949Z,45.77
2023-05-11T23:40:36.247Z,45.60
2023-05-11T23:43:03.079Z,46.97
2023-05-11T23:45:29.867Z,45.50
2023-05-11T23:47:57.005Z,45.33
2023-05-11T23:50:23.789Z,43.90
2023-05-11T23:52:50.769Z,41.57
2023-05-11T23:55:17.978Z,44.03
2023-05-11T23:57:45.039Z,42.80
